Plymouth, Massachusetts
Current Conditions -  °F | °C
As of 8:26 PM on Wednesday 26 Nov 2014 (Local Time) from KPYM Reporting Station
Light Rain Light Rain  
Wind Chill: 34°   Ceiling: 1200
Heat Index: 43°   Visibility: 6mi
Dew Point: 41°   Wind: 21mph
Humidity: 93%   Direction: 40°NE
Pressure: 29.66"   Gusts: 38mph
Location:  41.95°N, 70.66°W
Report Text: KPYM 270126Z AUTO 04018G33KT 6SM -RA BR BKN012 OVC020 06/05 A2966 RMK AO2 PK WND 05034/0058 P0003 T00610050
Loading
Personal Weather Stations






























Interactive Weather Map New forecast layout! Learn more

10-Day Weather Forecast

Advertisements
Track Severe Weather on mobile